Thorpe, Iowa
Current Conditions -  °F | °C
As of 8:55 AM on Monday 22 Dec 2014 (Local Time) from KMXO Reporting Station
Haze Haze  
Wind Chill: 28°   Ceiling: 5000
Heat Index: 36°   Visibility: 5mi
Dew Point: 36°   Wind: 12mph
Humidity: 100%   Direction: 120°ESE
Pressure: 29.74"   Gusts: NA
Location:  42.4689°N, 91.4531°W
Report Text: KMXO 221455Z AUTO 12010KT 5SM BR OVC050 02/02 A2974 RMK AO2
Loading
Personal Weather Stations






























Interactive Weather Map New forecast layout! Learn more

10-Day Weather Forecast

Advertisements
Track Severe Weather on mobile